createdAt,value
2018-09-06T00:01:35.477Z,44.50
2018-09-06T00:04:03.645Z,46.83
2018-09-06T00:06:31.785Z,40.77
2018-09-06T00:08:59.861Z,45.30
2018-09-06T00:11:27.889Z,51.43
2018-09-06T00:13:55.928Z,53.00
2018-09-06T00:16:24.024Z,48.50
2018-09-06T00:18:52.079Z,37.87
2018-09-06T00:21:20.418Z,44.47
2018-09-06T00:23:48.529Z,41.03
2018-09-06T00:26:16.577Z,39.57
2018-09-06T00:28:44.627Z,40.57
2018-09-06T00:31:12.673Z,43.23
2018-09-06T00:33:40.722Z,43.00
2018-09-06T00:36:08.758Z,47.47
2018-09-06T00:38:36.785Z,42.20
2018-09-06T00:41:04.859Z,43.20
2018-09-06T00:43:32.961Z,38.00
2018-09-06T00:46:01.018Z,41.10
2018-09-06T00:48:29.098Z,40.40
2018-09-06T00:50:57.226Z,39.67
2018-09-06T00:53:25.266Z,33.90
2018-09-06T00:55:53.325Z,30.80
2018-09-06T00:58:21.336Z,37.63
2018-09-06T01:00:49.350Z,40.83
2018-09-06T01:03:17.392Z,35.03
2018-09-06T01:05:45.408Z,26.33
2018-09-06T01:08:13.435Z,31.57
2018-09-06T01:10:41.490Z,34.37
2018-09-06T01:13:09.804Z,33.77
2018-09-06T01:15:37.813Z,28.93
2018-09-06T01:18:05.869Z,34.07
2018-09-06T01:20:33.925Z,24.60
2018-09-06T01:23:02.037Z,23.63
2018-09-06T01:25:30.077Z,31.30
2018-09-06T01:27:58.101Z,29.90
2018-09-06T01:30:26.116Z,37.17
2018-09-06T01:33:00.872Z,33.63
2018-09-06T01:35:28.921Z,36.73
2018-09-06T01:37:56.961Z,32.10
2018-09-06T01:40:25.102Z,31.50
2018-09-06T01:42:53.184Z,32.27
2018-09-06T01:45:21.239Z,27.37
2018-09-06T01:47:49.256Z,37.93
2018-09-06T01:50:17.274Z,35.50
2018-09-06T01:52:45.316Z,34.50
2018-09-06T01:55:13.341Z,41.87
2018-09-06T01:57:41.428Z,27.30
2018-09-06T02:00:09.508Z,30.43
2018-09-06T02:02:37.570Z,39.87
2018-09-06T02:05:05.676Z,39.03
2018-09-06T02:07:33.715Z,34.63
2018-09-06T02:10:01.748Z,36.97
2018-09-06T02:12:29.808Z,32.20
2018-09-06T02:14:57.840Z,47.23
2018-09-06T02:17:25.944Z,41.37
2018-09-06T02:19:53.961Z,50.23
2018-09-06T02:22:22.000Z,35.43
2018-09-06T02:24:50.046Z,21.80
2018-09-06T02:27:18.170Z,32.17
2018-09-06T02:29:46.336Z,41.17
2018-09-06T02:32:14.367Z,24.87
2018-09-06T02:34:42.415Z,26.43
2018-09-06T02:37:10.447Z,24.27
2018-09-06T02:39:38.475Z,23.07
2018-09-06T02:42:06.544Z,43.40
2018-09-06T02:44:34.642Z,48.37
2018-09-06T02:47:02.666Z,63.37
2018-09-06T02:49:30.690Z,77.67
2018-09-06T02:51:58.691Z,72.40
2018-09-06T02:54:26.726Z,44.87
2018-09-06T02:56:54.792Z,45.40
2018-09-06T02:59:22.825Z,45.97
2018-09-06T03:01:50.878Z,49.43
2018-09-06T03:04:18.892Z,50.63
2018-09-06T03:06:46.925Z,28.87
2018-09-06T03:09:14.948Z,47.23
2018-09-06T03:11:42.963Z,33.47
2018-09-06T03:14:10.981Z,24.83
2018-09-06T03:16:39.016Z,29.43
2018-09-06T03:19:07.100Z,43.00
2018-09-06T03:21:35.133Z,51.87
2018-09-06T03:24:03.198Z,36.67
2018-09-06T03:26:31.212Z,53.77
2018-09-06T03:28:59.376Z,47.43
2018-09-06T03:31:28.819Z,59.30
2018-09-06T03:36:54.758Z,65.00
2018-09-06T03:46:39.652Z,83.93
2018-09-06T03:49:08.027Z,64.63
2018-09-06T04:04:21.749Z,49.43
2018-09-06T04:07:32.502Z,78.87
2018-09-06T04:10:15.072Z,69.67
2018-09-06T04:12:58.655Z,84.17
2018-09-06T04:15:26.958Z,62.83
2018-09-06T04:17:54.942Z,50.43
2018-09-06T04:20:23.017Z,47.53
2018-09-06T04:22:51.045Z,60.77
2018-09-06T04:25:19.133Z,55.27
2018-09-06T04:27:47.156Z,50.23
2018-09-06T04:30:15.233Z,47.17
2018-09-06T04:32:43.264Z,32.13
2018-09-06T04:35:11.335Z,56.57
2018-09-06T04:37:39.352Z,44.27
2018-09-06T04:40:07.413Z,64.57
2018-09-06T04:42:36.534Z,45.80
2018-09-06T04:45:05.027Z,48.20
2018-09-06T04:47:33.326Z,44.27
2018-09-06T04:50:01.685Z,57.07
2018-09-06T04:52:36.518Z,42.43
2018-09-06T04:55:04.623Z,55.63
2018-09-06T04:57:32.824Z,41.03
2018-09-06T05:00:01.532Z,45.23
2018-09-06T05:02:29.533Z,40.97
2018-09-06T05:04:57.577Z,49.67
2018-09-06T05:07:32.438Z,52.13
2018-09-06T05:10:01.058Z,47.33
2018-09-06T05:12:29.108Z,46.23
2018-09-06T05:14:57.250Z,38.17
2018-09-06T05:17:25.294Z,61.23
2018-09-06T05:19:53.404Z,45.57
2018-09-06T05:22:21.445Z,49.57
2018-09-06T05:24:49.483Z,49.90
2018-09-06T05:27:17.501Z,41.40
2018-09-06T05:29:45.534Z,37.17
2018-09-06T05:32:13.575Z,44.43
2018-09-06T05:34:41.606Z,26.07
2018-09-06T05:37:09.620Z,30.53
2018-09-06T05:39:37.847Z,49.87
2018-09-06T05:42:05.953Z,44.60
2018-09-06T05:44:33.964Z,37.20
2018-09-06T05:47:02.003Z,45.23
2018-09-06T05:49:30.000Z,49.93
2018-09-06T05:51:58.015Z,30.47
2018-09-06T05:54:26.037Z,31.10
2018-09-06T05:56:54.081Z,62.83
2018-09-06T05:59:22.125Z,47.73
2018-09-06T06:01:50.193Z,45.17
2018-09-06T06:04:18.277Z,52.10
2018-09-06T06:06:46.413Z,54.27
2018-09-06T06:09:14.440Z,54.70
2018-09-06T06:11:42.497Z,59.40
2018-09-06T06:14:10.536Z,63.90
2018-09-06T06:16:38.570Z,72.17
2018-09-06T06:19:06.623Z,52.47
2018-09-06T06:21:34.845Z,64.33
2018-09-06T06:24:02.913Z,51.93
2018-09-06T06:26:30.980Z,69.50
2018-09-06T06:28:59.003Z,52.60
2018-09-06T06:31:27.083Z,58.73
2018-09-06T06:33:55.245Z,64.00
2018-09-06T06:36:23.288Z,45.63
2018-09-06T06:38:51.401Z,61.97
2018-09-06T06:41:19.409Z,49.17
2018-09-06T06:43:47.445Z,53.97
2018-09-06T06:46:15.459Z,27.50
2018-09-06T06:48:43.494Z,39.00
2018-09-06T06:51:11.556Z,59.37
2018-09-06T06:53:39.583Z,45.93
2018-09-06T06:56:07.605Z,58.00
2018-09-06T06:58:35.708Z,36.93
2018-09-06T07:01:03.727Z,30.27
2018-09-06T07:03:31.788Z,56.50
2018-09-06T07:06:00.213Z,37.60
2018-09-06T07:08:28.221Z,72.07
2018-09-06T07:10:56.277Z,56.60
2018-09-06T07:13:24.326Z,38.37
2018-09-06T07:15:52.389Z,40.40
2018-09-06T07:18:20.594Z,31.60
2018-09-06T07:20:48.568Z,43.57
2018-09-06T07:23:16.595Z,80.30
2018-09-06T07:25:44.648Z,63.17
2018-09-06T07:28:12.815Z,64.13
2018-09-06T07:30:40.857Z,43.67
2018-09-06T07:35:43.406Z,45.93
2018-09-06T07:38:11.444Z,53.93
2018-09-06T07:40:39.501Z,50.53
2018-09-06T07:43:07.506Z,54.90
2018-09-06T07:45:35.549Z,52.60
2018-09-06T07:48:03.751Z,55.63
2018-09-06T07:50:31.829Z,58.27
2018-09-06T07:52:59.844Z,36.83
2018-09-06T07:55:27.907Z,46.77
2018-09-06T07:57:55.943Z,42.93
2018-09-06T08:00:23.978Z,55.90
2018-09-06T08:02:52.028Z,66.10
2018-09-06T08:05:20.099Z,44.83
2018-09-06T08:07:48.184Z,54.13
2018-09-06T08:10:16.220Z,48.20
2018-09-06T08:12:44.241Z,36.17
2018-09-06T08:15:12.305Z,39.47
2018-09-06T08:17:40.405Z,51.47
2018-09-06T08:20:08.474Z,45.53
2018-09-06T08:22:36.502Z,51.53
2018-09-06T08:25:04.677Z,34.50
2018-09-06T08:27:32.796Z,71.30
2018-09-06T08:30:01.381Z,53.27
2018-09-06T08:32:29.432Z,59.57
2018-09-06T08:34:57.424Z,46.93
2018-09-06T08:37:25.596Z,50.43
2018-09-06T08:39:53.667Z,42.40
2018-09-06T08:42:21.732Z,51.70
2018-09-06T08:44:49.761Z,54.33
2018-09-06T08:47:17.823Z,54.57
2018-09-06T08:49:45.902Z,59.90
2018-09-06T08:52:13.994Z,62.00
2018-09-06T08:54:42.104Z,54.87
2018-09-06T08:57:10.172Z,61.93
2018-09-06T08:59:38.386Z,54.00
2018-09-06T09:02:06.534Z,59.03
2018-09-06T09:04:34.821Z,55.97
2018-09-06T09:07:02.877Z,50.40
2018-09-06T09:09:30.936Z,61.20
2018-09-06T09:11:58.968Z,56.20
2018-09-06T09:14:27.107Z,54.90
2018-09-06T09:16:55.391Z,56.50
2018-09-06T09:19:23.452Z,73.20
2018-09-06T09:21:51.497Z,63.07
2018-09-06T09:24:19.544Z,59.20
2018-09-06T09:26:47.654Z,54.87
2018-09-06T09:29:15.696Z,58.03
2018-09-06T09:31:43.765Z,56.30
2018-09-06T09:34:12.012Z,56.93
2018-09-06T09:36:40.099Z,50.97
2018-09-06T09:39:08.124Z,38.13
2018-09-06T09:41:36.468Z,58.63
2018-09-06T09:44:04.553Z,40.80
2018-09-06T09:49:00.048Z,46.83
2018-09-06T09:51:28.182Z,45.07
2018-09-06T09:53:56.279Z,53.50
2018-09-06T09:56:24.346Z,53.47
2018-09-06T09:58:52.441Z,50.00
2018-09-06T10:01:20.645Z,61.20
2018-09-06T10:03:48.735Z,51.50
2018-09-06T10:06:16.797Z,52.03
2018-09-06T10:08:44.802Z,44.87
2018-09-06T10:11:13.229Z,66.27
2018-09-06T10:13:41.326Z,54.23
2018-09-06T10:16:09.373Z,54.73
2018-09-06T10:18:37.464Z,50.30
2018-09-06T10:23:40.030Z,50.60
2018-09-06T10:26:08.105Z,53.63
2018-09-06T10:28:36.188Z,47.47
2018-09-06T10:31:04.254Z,53.57
2018-09-06T10:33:32.356Z,46.50
2018-09-06T10:36:00.472Z,63.10
2018-09-06T10:38:28.529Z,48.43
2018-09-06T10:40:56.553Z,37.23
2018-09-06T10:43:24.723Z,55.03
2018-09-06T10:45:52.800Z,54.67
2018-09-06T10:48:20.966Z,51.33
2018-09-06T10:50:49.032Z,51.07
2018-09-06T10:53:17.121Z,47.70
2018-09-06T10:55:45.188Z,59.50
2018-09-06T10:58:13.244Z,47.93
2018-09-06T11:00:41.354Z,55.87
2018-09-06T11:03:09.431Z,57.97
2018-09-06T11:05:37.566Z,48.77
2018-09-06T11:08:05.779Z,55.13
2018-09-06T11:10:33.729Z,45.83
2018-09-06T11:13:01.828Z,51.33
2018-09-06T11:15:29.866Z,45.80
2018-09-06T11:17:58.007Z,48.00
2018-09-06T11:20:31.032Z,44.17
2018-09-06T11:22:59.098Z,48.33
2018-09-06T11:25:27.289Z,38.63
2018-09-06T11:27:55.354Z,49.17
2018-09-06T11:30:23.456Z,50.33
2018-09-06T11:32:51.523Z,42.23
2018-09-06T11:35:19.559Z,46.57
2018-09-06T11:37:47.596Z,43.50
2018-09-06T11:40:15.708Z,45.13
2018-09-06T11:42:43.770Z,41.17
2018-09-06T11:45:11.824Z,39.70
2018-09-06T11:47:39.917Z,47.57
2018-09-06T11:50:07.952Z,43.33
2018-09-06T11:52:35.997Z,32.23
2018-09-06T11:55:04.116Z,39.60
2018-09-06T11:57:32.216Z,35.97
2018-09-06T12:00:00.917Z,41.33
2018-09-06T12:02:28.993Z,36.43
2018-09-06T12:04:57.096Z,32.57
2018-09-06T12:07:25.201Z,34.23
2018-09-06T12:09:53.349Z,29.73
2018-09-06T12:12:21.404Z,34.90
2018-09-06T12:14:49.487Z,24.47
2018-09-06T12:17:17.592Z,31.50
2018-09-06T12:19:45.690Z,29.87
2018-09-06T12:22:13.769Z,34.03
2018-09-06T12:24:41.796Z,31.87
2018-09-06T12:27:09.880Z,29.40
2018-09-06T12:29:37.994Z,35.47
2018-09-06T12:32:07.944Z,36.70
2018-09-06T12:34:36.046Z,35.07
2018-09-06T12:37:04.383Z,31.77
2018-09-06T12:39:32.509Z,32.43
2018-09-06T12:42:00.597Z,33.57
2018-09-06T12:44:28.676Z,34.10
2018-09-06T12:46:56.791Z,37.60
2018-09-06T12:49:24.916Z,36.47
2018-09-06T12:51:53.119Z,38.23
2018-09-06T12:54:21.213Z,39.77
2018-09-06T12:56:49.325Z,38.50
2018-09-06T12:59:17.371Z,36.90
2018-09-06T13:01:45.452Z,38.23
2018-09-06T13:04:13.534Z,37.63
2018-09-06T13:06:41.649Z,31.10
2018-09-06T13:09:09.711Z,33.87
2018-09-06T13:11:37.742Z,42.40
2018-09-06T13:14:05.824Z,41.50
2018-09-06T13:16:33.868Z,38.73
2018-09-06T13:19:01.913Z,41.57
2018-09-06T13:21:29.970Z,36.97
2018-09-06T13:23:58.028Z,34.00
2018-09-06T13:26:26.122Z,32.83
2018-09-06T13:28:54.205Z,34.10
2018-09-06T13:31:22.322Z,34.77
2018-09-06T13:33:50.321Z,43.83
2018-09-06T13:36:18.551Z,37.67
2018-09-06T13:38:46.560Z,36.87
2018-09-06T13:41:14.650Z,47.77
2018-09-06T13:43:42.666Z,45.47
2018-09-06T13:46:10.731Z,39.10
2018-09-06T13:48:38.770Z,37.73
2018-09-06T13:51:06.809Z,46.87
2018-09-06T13:53:34.845Z,44.53
2018-09-06T13:56:02.955Z,46.67
2018-09-06T13:58:31.078Z,46.60
2018-09-06T14:00:59.386Z,53.70
2018-09-06T14:03:27.556Z,41.67
2018-09-06T14:05:55.831Z,45.40
2018-09-06T14:08:23.769Z,52.37
2018-09-06T14:10:51.828Z,35.23
2018-09-06T14:13:20.081Z,47.43
2018-09-06T14:15:48.144Z,48.67
2018-09-06T14:18:16.260Z,57.73
2018-09-06T14:20:44.289Z,57.43
2018-09-06T14:23:12.331Z,53.77
2018-09-06T14:25:40.384Z,46.07
2018-09-06T14:28:08.462Z,52.93
2018-09-06T14:30:36.689Z,56.00
2018-09-06T14:33:04.972Z,57.20
2018-09-06T14:35:33.121Z,34.67
2018-09-06T14:38:01.404Z,45.30
2018-09-06T14:40:29.458Z,40.77
2018-09-06T14:42:57.628Z,47.10
2018-09-06T14:45:25.915Z,49.20
2018-09-06T14:47:53.973Z,42.37
2018-09-06T14:50:22.049Z,38.57
2018-09-06T14:52:50.127Z,44.30
2018-09-06T14:55:18.172Z,37.20
2018-09-06T14:57:46.240Z,38.10
2018-09-06T15:00:14.317Z,43.80
2018-09-06T15:02:42.378Z,43.73
2018-09-06T15:05:10.507Z,34.10
2018-09-06T15:07:38.545Z,45.47
2018-09-06T15:10:06.615Z,43.90
2018-09-06T15:12:34.792Z,41.10
2018-09-06T15:15:02.885Z,46.47
2018-09-06T15:17:30.930Z,44.90
2018-09-06T15:19:59.019Z,36.10
2018-09-06T15:22:27.037Z,40.37
2018-09-06T15:24:55.115Z,41.70
2018-09-06T15:27:23.214Z,41.00
2018-09-06T15:29:51.381Z,40.40
2018-09-06T15:32:19.512Z,36.70
2018-09-06T15:34:47.657Z,37.23
2018-09-06T15:37:16.937Z,41.27
2018-09-06T15:39:45.822Z,32.33
2018-09-06T15:42:13.891Z,34.07
2018-09-06T15:44:42.039Z,32.50
2018-09-06T15:47:10.763Z,36.23
2018-09-06T15:49:39.407Z,30.67
2018-09-06T15:52:07.380Z,32.87
2018-09-06T15:54:36.546Z,34.40
2018-09-06T15:57:04.622Z,35.60
2018-09-06T15:59:33.047Z,32.50
2018-09-06T16:02:01.422Z,37.00
2018-09-06T16:04:29.934Z,33.33
2018-09-06T16:06:58.009Z,33.80
2018-09-06T16:09:26.120Z,33.80
2018-09-06T16:11:54.233Z,31.67
2018-09-06T16:14:22.266Z,36.33
2018-09-06T16:16:50.376Z,34.57
2018-09-06T16:19:18.478Z,40.40
2018-09-06T16:21:46.534Z,38.03
2018-09-06T16:24:14.631Z,33.10
2018-09-06T16:26:42.708Z,37.97
2018-09-06T16:29:10.844Z,39.23
2018-09-06T16:31:38.920Z,36.20
2018-09-06T16:34:06.998Z,38.63
2018-09-06T16:36:35.084Z,35.90
2018-09-06T16:39:04.139Z,39.13
2018-09-06T16:41:32.278Z,28.10
2018-09-06T16:44:00.595Z,35.47
2018-09-06T16:46:28.748Z,28.97
2018-09-06T16:48:56.838Z,30.43
2018-09-06T16:51:25.042Z,29.30
2018-09-06T16:53:53.086Z,32.80
2018-09-06T16:56:21.148Z,32.17
2018-09-06T16:58:49.195Z,31.33
2018-09-06T17:01:17.310Z,30.47
2018-09-06T17:03:45.342Z,23.07
2018-09-06T17:06:13.452Z,30.20
2018-09-06T17:08:41.515Z,27.93
2018-09-06T17:11:09.741Z,29.03
2018-09-06T17:13:38.019Z,29.70
2018-09-06T17:16:06.450Z,28.03
2018-09-06T17:18:34.557Z,26.10
2018-09-06T17:21:02.774Z,24.50
2018-09-06T17:23:30.831Z,26.73
2018-09-06T17:25:58.962Z,26.97
2018-09-06T17:28:27.196Z,20.13
2018-09-06T17:30:55.745Z,22.10
2018-09-06T17:33:23.943Z,17.30
2018-09-06T17:35:52.153Z,21.53
2018-09-06T17:38:20.225Z,17.40
2018-09-06T17:40:48.276Z,14.77
2018-09-06T17:43:16.385Z,16.03
2018-09-06T17:45:44.576Z,15.27
2018-09-06T17:48:12.776Z,16.27
2018-09-06T17:50:40.874Z,13.63
2018-09-06T17:53:09.148Z,14.40
2018-09-06T17:55:37.309Z,15.50
2018-09-06T17:58:05.644Z,15.23
2018-09-06T18:00:34.349Z,17.77
2018-09-06T18:03:02.733Z,15.33
2018-09-06T18:05:30.921Z,14.33
2018-09-06T18:07:59.027Z,16.40
2018-09-06T18:10:27.096Z,14.93
2018-09-06T18:12:55.817Z,16.53
2018-09-06T18:15:24.204Z,13.13
2018-09-06T18:17:52.485Z,11.87
2018-09-06T18:20:20.464Z,12.23
2018-09-06T18:22:48.602Z,11.50
2018-09-06T18:25:16.709Z,9.27
2018-09-06T18:27:44.886Z,9.10
2018-09-06T18:30:12.993Z,11.00
2018-09-06T18:32:41.129Z,10.27
2018-09-06T18:35:09.249Z,9.07
2018-09-06T18:37:37.344Z,10.50
2018-09-06T18:40:05.337Z,8.60
2018-09-06T18:42:33.497Z,10.67
2018-09-06T18:45:01.596Z,8.60
2018-09-06T18:47:29.616Z,8.23
2018-09-06T18:49:57.713Z,9.87
2018-09-06T18:52:25.814Z,10.33
2018-09-06T18:54:53.949Z,10.30
2018-09-06T18:57:22.072Z,8.33
2018-09-06T18:59:50.155Z,10.47
2018-09-06T19:02:18.354Z,10.43
2018-09-06T19:04:46.591Z,8.47
2018-09-06T19:07:14.617Z,10.53
2018-09-06T19:09:42.775Z,13.93
2018-09-06T19:12:10.911Z,8.40
2018-09-06T19:14:39.191Z,11.07
2018-09-06T19:17:07.418Z,10.20
2018-09-06T19:19:35.480Z,10.13
2018-09-06T19:22:03.627Z,8.90
2018-09-06T19:27:06.170Z,7.37
2018-09-06T19:29:34.241Z,8.13
2018-09-06T19:32:02.378Z,9.17
2018-09-06T19:34:30.477Z,10.10
2018-09-06T19:36:58.582Z,13.43
2018-09-06T19:39:26.813Z,9.83
2018-09-06T19:41:54.924Z,8.53
2018-09-06T19:44:22.975Z,14.03
2018-09-06T19:46:51.047Z,11.97
2018-09-06T19:49:19.121Z,10.53
2018-09-06T19:51:47.214Z,11.80
2018-09-06T19:54:15.310Z,9.40
2018-09-06T19:56:43.617Z,9.63
2018-09-06T19:59:11.670Z,13.27
2018-09-06T20:01:40.157Z,7.77
2018-09-06T20:04:08.241Z,9.70
2018-09-06T20:06:36.397Z,8.83
2018-09-06T20:09:05.966Z,8.83
2018-09-06T20:11:34.069Z,9.53
2018-09-06T20:14:02.137Z,9.67
2018-09-06T20:16:30.292Z,8.30
2018-09-06T20:18:58.389Z,9.60
2018-09-06T20:21:26.423Z,9.40
2018-09-06T20:23:54.574Z,8.33
2018-09-06T20:26:22.635Z,7.10
2018-09-06T20:28:50.869Z,9.20
2018-09-06T20:31:18.978Z,9.23
2018-09-06T20:33:47.212Z,11.30
2018-09-06T20:36:15.385Z,11.10
2018-09-06T20:38:43.655Z,9.20
2018-09-06T20:41:11.876Z,10.97
2018-09-06T20:43:40.115Z,8.97
2018-09-06T20:46:08.249Z,11.57
2018-09-06T20:48:36.321Z,14.07
2018-09-06T20:51:04.879Z,9.80
2018-09-06T20:53:33.057Z,11.17
2018-09-06T20:56:01.130Z,11.33
2018-09-06T20:58:29.294Z,9.47
2018-09-06T21:00:57.421Z,11.30
2018-09-06T21:03:25.501Z,9.17
2018-09-06T21:05:54.207Z,8.43
2018-09-06T21:08:22.247Z,11.80
2018-09-06T21:10:50.483Z,8.63
2018-09-06T21:13:18.496Z,9.00
2018-09-06T21:15:46.758Z,8.50
2018-09-06T21:18:15.238Z,6.83
2018-09-06T21:20:43.917Z,12.60
2018-09-06T21:23:11.985Z,10.90
2018-09-06T21:25:40.014Z,9.33
2018-09-06T21:28:08.088Z,9.80
2018-09-06T21:30:36.625Z,8.50
2018-09-06T21:33:04.821Z,8.70
2018-09-06T21:35:33.009Z,11.37
2018-09-06T21:38:01.121Z,9.80
2018-09-06T21:40:29.227Z,11.33
2018-09-06T21:42:57.273Z,11.57
2018-09-06T21:45:25.533Z,9.80
2018-09-06T21:47:53.608Z,9.20
2018-09-06T21:50:21.726Z,9.00
2018-09-06T21:52:49.770Z,8.37
2018-09-06T21:55:24.665Z,8.40
2018-09-06T21:57:53.201Z,9.37
2018-09-06T22:00:21.289Z,7.67
2018-09-06T22:02:49.366Z,9.83
2018-09-06T22:05:17.445Z,8.53
2018-09-06T22:07:45.470Z,8.50
2018-09-06T22:10:13.569Z,8.67
2018-09-06T22:12:41.624Z,9.13
2018-09-06T22:15:09.805Z,10.47
2018-09-06T22:17:37.844Z,7.83
2018-09-06T22:20:05.935Z,8.17
2018-09-06T22:22:34.029Z,7.27
2018-09-06T22:25:02.053Z,7.60
2018-09-06T22:27:30.142Z,7.87
2018-09-06T22:29:58.250Z,6.57
2018-09-06T22:32:26.285Z,9.77
2018-09-06T22:34:54.327Z,12.33
2018-09-06T22:37:22.384Z,10.47
2018-09-06T22:39:50.406Z,11.37
2018-09-06T22:42:18.583Z,10.60
2018-09-06T22:44:46.697Z,12.13
2018-09-06T22:47:14.866Z,12.50
2018-09-06T22:49:43.011Z,11.60
2018-09-06T22:52:11.136Z,12.23
2018-09-06T22:54:39.195Z,12.97
2018-09-06T22:57:07.336Z,14.33
2018-09-06T22:59:35.454Z,15.80
2018-09-06T23:02:03.660Z,14.07
2018-09-06T23:04:31.731Z,13.87
2018-09-06T23:06:59.797Z,18.23
2018-09-06T23:09:27.920Z,14.53
2018-09-06T23:11:55.981Z,15.17
2018-09-06T23:14:24.017Z,10.73
2018-09-06T23:16:52.173Z,15.83
2018-09-06T23:19:20.226Z,10.30
2018-09-06T23:21:48.288Z,16.30
2018-09-06T23:24:16.336Z,14.13
2018-09-06T23:26:44.421Z,17.27
2018-09-06T23:29:12.475Z,10.97
2018-09-06T23:31:40.568Z,15.10
2018-09-06T23:34:08.587Z,19.90
2018-09-06T23:36:36.679Z,15.73
2018-09-06T23:39:06.028Z,14.63
2018-09-06T23:41:34.085Z,15.33
2018-09-06T23:44:02.283Z,15.23
2018-09-06T23:46:30.360Z,15.73
2018-09-06T23:48:58.493Z,17.67
2018-09-06T23:54:00.811Z,16.80
2018-09-06T23:56:28.930Z,15.60
2018-09-06T23:58:56.938Z,16.57
